createdAt,value
2022-09-20T00:01:33.161Z,89.07
2022-09-20T00:04:06.964Z,89.16
2022-09-20T00:06:35.208Z,89.05
2022-09-20T00:09:03.492Z,89.04
2022-09-20T00:11:34.934Z,89.12
2022-09-20T00:14:06.112Z,89.13
2022-09-20T00:16:38.169Z,89.12
2022-09-20T00:19:06.703Z,89.21
2022-09-20T00:21:36.462Z,89.19
2022-09-20T00:24:04.629Z,88.96
2022-09-20T00:26:39.804Z,88.78
2022-09-20T00:29:07.994Z,88.70
2022-09-20T00:31:37.185Z,88.62
2022-09-20T00:34:23.180Z,88.68
2022-09-20T00:36:50.568Z,88.69
2022-09-20T00:39:18.025Z,88.61
2022-09-20T00:41:47.935Z,88.63
2022-09-20T00:44:43.984Z,88.58
2022-09-20T00:47:30.134Z,88.65
2022-09-20T00:50:07.625Z,88.72
2022-09-20T00:52:37.546Z,88.65
2022-09-20T00:55:11.515Z,88.56
2022-09-20T00:57:40.312Z,88.54
2022-09-20T01:00:11.601Z,88.56
2022-09-20T01:02:48.390Z,88.51
2022-09-20T01:05:17.682Z,88.63
2022-09-20T01:07:48.610Z,88.64
2022-09-20T01:10:16.197Z,88.70
2022-09-20T01:12:47.434Z,88.78
2022-09-20T01:15:15.819Z,88.87
2022-09-20T01:17:53.335Z,88.90
2022-09-20T01:20:28.076Z,89.07
2022-09-20T01:23:23.195Z,89.05
2022-09-20T01:26:14.838Z,89.17
2022-09-20T01:28:47.609Z,89.22
2022-09-20T01:31:30.872Z,89.02
2022-09-20T01:34:00.029Z,89.12
2022-09-20T01:36:37.257Z,89.28
2022-09-20T01:39:50.140Z,88.96
2022-09-20T01:42:17.757Z,89.07
2022-09-20T01:45:04.847Z,88.95
2022-09-20T01:47:43.902Z,88.90
2022-09-20T01:50:11.201Z,88.99
2022-09-20T01:53:02.868Z,89.03
2022-09-20T01:55:42.217Z,88.91
2022-09-20T01:58:39.900Z,88.68
2022-09-20T02:02:05.003Z,88.46
2022-09-20T02:04:53.859Z,88.44
2022-09-20T02:08:05.527Z,88.24
2022-09-20T02:10:42.163Z,88.44
2022-09-20T02:13:23.928Z,88.26
2022-09-20T02:16:18.498Z,88.29
2022-09-20T02:18:57.044Z,88.53
2022-09-20T02:21:46.378Z,88.57
2022-09-20T02:24:58.287Z,88.48
2022-09-20T02:27:36.850Z,88.48
2022-09-20T02:30:23.088Z,88.09
2022-09-20T02:33:10.457Z,87.98
2022-09-20T02:35:45.475Z,87.85
2022-09-20T02:38:28.100Z,87.65
2022-09-20T02:41:02.007Z,87.69
2022-09-20T02:43:36.982Z,87.80
2022-09-20T02:46:09.809Z,87.54
2022-09-20T02:49:09.670Z,87.28
2022-09-20T02:51:46.758Z,87.32
2022-09-20T02:54:35.899Z,87.07
2022-09-20T02:57:47.028Z,87.01
2022-09-20T03:00:25.949Z,86.94
2022-09-20T03:03:03.711Z,87.00
2022-09-20T03:05:44.509Z,86.91
2022-09-20T03:08:31.524Z,86.78
2022-09-20T03:11:23.351Z,86.39
2022-09-20T03:13:59.942Z,86.49
2022-09-20T03:16:57.928Z,86.73
2022-09-20T03:19:39.460Z,86.49
2022-09-20T03:22:19.598Z,86.56
2022-09-20T03:24:59.638Z,86.61
2022-09-20T03:27:39.961Z,87.15
2022-09-20T03:30:23.993Z,87.72
2022-09-20T03:33:03.529Z,88.27
2022-09-20T03:35:56.433Z,88.41
2022-09-20T03:38:56.461Z,88.65
2022-09-20T03:42:01.629Z,89.02
2022-09-20T03:44:45.693Z,89.75
2022-09-20T03:47:48.079Z,89.99
2022-09-20T03:50:22.111Z,90.16
2022-09-20T03:53:03.051Z,90.24
2022-09-20T03:55:47.181Z,90.48
2022-09-20T03:58:45.004Z,90.82
2022-09-20T04:01:33.748Z,90.91
2022-09-20T04:04:12.509Z,91.25
2022-09-20T04:07:01.789Z,91.23
2022-09-20T04:09:47.713Z,91.44
2022-09-20T04:12:53.573Z,91.67
2022-09-20T04:15:44.402Z,91.74
2022-09-20T04:18:33.637Z,92.02
2022-09-20T04:21:07.999Z,92.02
2022-09-20T04:24:02.133Z,91.98
2022-09-20T04:26:32.270Z,92.23
2022-09-20T04:29:23.201Z,92.13
2022-09-20T04:31:59.211Z,92.25
2022-09-20T04:34:57.817Z,92.27
2022-09-20T04:37:33.124Z,92.53
2022-09-20T04:40:33.427Z,92.43
2022-09-20T04:43:17.490Z,92.92
2022-09-20T04:45:51.563Z,92.91
2022-09-20T04:48:45.849Z,93.08
2022-09-20T04:51:16.096Z,93.42
2022-09-20T04:54:12.149Z,93.48
2022-09-20T04:57:11.205Z,93.46
2022-09-20T05:00:12.234Z,93.65
2022-09-20T05:02:53.864Z,93.98
2022-09-20T05:05:59.125Z,93.73
2022-09-20T05:08:53.254Z,93.96
2022-09-20T05:11:34.455Z,94.03
2022-09-20T05:14:19.597Z,94.25
2022-09-20T05:17:08.527Z,94.33
2022-09-20T05:20:13.744Z,94.41
2022-09-20T05:23:10.955Z,94.67
2022-09-20T05:25:57.135Z,94.91
2022-09-20T05:28:38.709Z,94.92
2022-09-20T05:31:15.566Z,95.12
2022-09-20T05:33:57.670Z,95.19
2022-09-20T05:36:59.593Z,95.28
2022-09-20T05:39:43.565Z,95.47
2022-09-20T05:42:20.564Z,95.48
2022-09-20T05:45:08.175Z,95.32
2022-09-20T05:48:05.739Z,95.07
2022-09-20T05:51:09.829Z,95.12
2022-09-20T05:53:59.004Z,95.45
2022-09-20T05:56:37.900Z,95.65
2022-09-20T05:59:36.228Z,95.75
2022-09-20T06:02:41.437Z,95.95
2022-09-20T06:05:24.408Z,96.25
2022-09-20T06:08:16.119Z,95.93
2022-09-20T06:11:18.499Z,96.01
2022-09-20T06:14:11.214Z,96.08
2022-09-20T06:17:16.199Z,95.81
2022-09-20T06:20:13.209Z,95.94
2022-09-20T06:22:47.216Z,96.23
2022-09-20T06:25:31.280Z,95.54
2022-09-20T06:28:13.262Z,94.30
2022-09-20T06:30:51.949Z,93.95
2022-09-20T06:33:25.788Z,93.56
2022-09-20T06:35:59.044Z,93.77
2022-09-20T06:38:56.076Z,94.07
2022-09-20T06:41:30.756Z,94.67
2022-09-20T06:44:01.630Z,94.68
2022-09-20T06:46:34.250Z,94.87
2022-09-20T06:49:06.946Z,95.12
2022-09-20T06:51:39.051Z,95.03
2022-09-20T06:54:13.079Z,95.06
2022-09-20T06:56:40.483Z,95.28
2022-09-20T06:59:08.715Z,95.21
2022-09-20T07:01:41.859Z,96.02
2022-09-20T07:04:17.465Z,95.84
2022-09-20T07:06:47.632Z,95.71
2022-09-20T07:09:17.816Z,96.01
2022-09-20T07:11:47.746Z,96.28
2022-09-20T07:14:19.224Z,96.60
2022-09-20T07:16:46.667Z,96.69
2022-09-20T07:19:16.490Z,96.89
2022-09-20T07:21:44.399Z,96.94
2022-09-20T07:24:15.193Z,96.95
2022-09-20T07:27:00.104Z,96.98
2022-09-20T07:29:31.555Z,96.83
2022-09-20T07:31:58.991Z,96.87
2022-09-20T07:34:27.263Z,97.28
2022-09-20T07:36:57.352Z,97.25
2022-09-20T07:39:24.765Z,97.52
2022-09-20T07:41:53.161Z,97.73
2022-09-20T07:44:27.759Z,97.92
2022-09-20T07:46:58.149Z,97.89
2022-09-20T07:49:29.956Z,97.81
2022-09-20T07:51:58.427Z,97.75
2022-09-20T07:54:32.103Z,97.66
2022-09-20T07:57:01.749Z,97.71
2022-09-20T07:59:29.420Z,97.32
2022-09-20T08:02:20.457Z,97.30
2022-09-20T08:04:49.992Z,96.87
2022-09-20T08:07:18.649Z,97.63
2022-09-20T08:09:45.993Z,98.48
2022-09-20T08:15:12.068Z,99.49
2022-09-20T08:17:49.940Z,99.30
2022-09-20T08:20:22.649Z,99.35
2022-09-20T08:23:12.575Z,99.43
2022-09-20T08:25:39.525Z,99.39
2022-09-20T08:28:08.190Z,99.53
2022-09-20T08:30:36.159Z,99.29
2022-09-20T08:33:07.053Z,99.67
2022-09-20T08:35:38.497Z,99.29
2022-09-20T08:41:04.809Z,96.15
2022-09-20T08:43:50.853Z,94.96
2022-09-20T08:46:23.645Z,94.10
2022-09-20T08:48:52.471Z,93.56
2022-09-20T08:51:23.221Z,92.97
2022-09-20T08:53:56.240Z,92.32
2022-09-20T08:56:36.342Z,91.63
2022-09-20T08:59:14.423Z,91.17
2022-09-20T09:01:46.962Z,91.47
2022-09-20T09:04:18.500Z,91.93
2022-09-20T09:06:49.836Z,92.98
2022-09-20T09:09:27.695Z,94.12
2022-09-20T09:11:57.034Z,95.78
2022-09-20T09:14:51.623Z,96.31
2022-09-20T09:17:27.946Z,97.45
2022-09-20T09:20:14.408Z,98.39
2022-09-20T09:22:45.265Z,99.44
2022-09-20T09:25:32.188Z,99.56
2022-09-20T09:28:03.220Z,100.00
2022-09-20T09:30:30.783Z,100.00
2022-09-20T09:33:32.116Z,100.00
2022-09-20T09:36:15.796Z,99.90
2022-09-20T09:38:46.204Z,98.86
2022-09-20T09:41:26.664Z,100.00
2022-09-20T09:44:02.997Z,99.68
2022-09-20T09:46:35.339Z,99.56
2022-09-20T09:49:15.803Z,97.74
2022-09-20T09:52:14.116Z,96.88
2022-09-20T09:54:50.609Z,95.23
2022-09-20T09:57:33.863Z,94.44
2022-09-20T10:00:21.411Z,94.50
2022-09-20T10:03:14.972Z,93.76
2022-09-20T10:06:10.483Z,92.67
2022-09-20T10:09:05.955Z,91.78
2022-09-20T10:11:42.441Z,91.17
2022-09-20T10:14:33.934Z,91.49
2022-09-20T10:17:19.666Z,91.55
2022-09-20T10:20:05.911Z,91.90
2022-09-20T10:23:29.856Z,91.28
2022-09-20T10:25:56.255Z,90.49
2022-09-20T10:28:35.248Z,90.42
2022-09-20T10:31:35.688Z,90.52
2022-09-20T10:34:12.238Z,90.75
2022-09-20T10:36:53.678Z,90.77
2022-09-20T10:39:30.428Z,90.65
2022-09-20T10:42:35.246Z,90.86
2022-09-20T10:45:43.990Z,91.46
2022-09-20T10:48:18.472Z,92.04
2022-09-20T10:50:58.761Z,92.10
2022-09-20T10:53:49.206Z,92.36
2022-09-20T10:56:30.920Z,92.90
2022-09-20T10:59:20.839Z,93.04
2022-09-20T11:02:13.662Z,93.45
2022-09-20T11:05:07.350Z,93.49
2022-09-20T11:07:43.828Z,93.50
2022-09-20T11:10:29.515Z,93.78
2022-09-20T11:13:11.477Z,93.91
2022-09-20T11:15:45.855Z,93.96
2022-09-20T11:18:45.084Z,93.65
2022-09-20T11:21:22.844Z,93.95
2022-09-20T11:24:27.999Z,94.12
2022-09-20T11:27:21.088Z,94.25
2022-09-20T11:30:08.395Z,94.29
2022-09-20T11:32:44.525Z,94.40
2022-09-20T11:35:14.807Z,94.50
2022-09-20T11:37:57.305Z,94.78
2022-09-20T11:40:34.310Z,94.88
2022-09-20T11:43:06.459Z,95.30
2022-09-20T11:45:45.404Z,95.09
2022-09-20T11:48:26.481Z,95.18
2022-09-20T11:51:20.466Z,95.20
2022-09-20T11:54:02.263Z,95.32
2022-09-20T11:56:32.366Z,95.65
2022-09-20T11:59:07.327Z,95.57
2022-09-20T12:01:38.825Z,95.92
2022-09-20T12:04:33.812Z,95.95
2022-09-20T12:07:19.858Z,96.04
2022-09-20T12:09:54.147Z,96.32
2022-09-20T12:12:37.645Z,96.27
2022-09-20T12:15:07.877Z,96.92
2022-09-20T12:17:47.504Z,96.28
2022-09-20T12:20:34.826Z,93.83
2022-09-20T12:23:42.357Z,91.56
2022-09-20T12:26:21.869Z,91.40
2022-09-20T12:29:00.377Z,91.32
2022-09-20T12:31:33.634Z,91.05
2022-09-20T12:34:01.112Z,90.36
2022-09-20T12:36:37.211Z,90.72
2022-09-20T12:39:17.613Z,90.53
2022-09-20T12:41:54.428Z,90.42
2022-09-20T12:44:41.926Z,90.14
2022-09-20T12:47:12.413Z,89.83
2022-09-20T12:50:05.452Z,89.34
2022-09-20T12:52:50.655Z,89.56
2022-09-20T12:55:27.277Z,89.25
2022-09-20T12:58:02.191Z,89.27
2022-09-20T13:00:38.209Z,89.35
2022-09-20T13:03:15.044Z,89.01
2022-09-20T13:05:47.163Z,89.07
2022-09-20T13:08:30.120Z,88.95
2022-09-20T13:11:06.940Z,88.73
2022-09-20T13:13:55.747Z,89.13
2022-09-20T13:16:32.527Z,88.78
2022-09-20T13:19:09.944Z,88.74
2022-09-20T13:21:41.700Z,88.47
2022-09-20T13:24:18.364Z,88.20
2022-09-20T13:26:49.005Z,88.06
2022-09-20T13:29:29.472Z,88.32
2022-09-20T13:32:18.872Z,88.68
2022-09-20T13:34:46.705Z,89.84
2022-09-20T13:37:21.806Z,90.18
2022-09-20T13:39:55.622Z,90.61
2022-09-20T13:42:29.974Z,89.87
2022-09-20T13:44:58.841Z,88.30
2022-09-20T13:47:31.591Z,87.78
2022-09-20T13:50:15.759Z,87.48
2022-09-20T13:52:48.831Z,87.29
2022-09-20T13:55:36.124Z,87.17
2022-09-20T13:58:17.293Z,87.01
2022-09-20T14:00:53.090Z,86.80
2022-09-20T14:03:22.103Z,87.01
2022-09-20T14:06:02.864Z,86.90
2022-09-20T14:08:36.525Z,86.65
2022-09-20T14:11:21.442Z,86.84
2022-09-20T14:14:12.368Z,86.68
2022-09-20T14:16:49.151Z,86.75
2022-09-20T14:19:20.144Z,86.59
2022-09-20T14:21:48.947Z,86.89
2022-09-20T14:24:17.536Z,85.85
2022-09-20T14:27:06.007Z,84.80
2022-09-20T14:29:44.072Z,86.06
2022-09-20T14:32:17.645Z,86.59
2022-09-20T14:35:00.315Z,86.07
2022-09-20T14:37:42.616Z,85.63
2022-09-20T14:40:18.797Z,85.43
2022-09-20T14:42:48.684Z,85.06
2022-09-20T14:45:39.979Z,85.47
2022-09-20T14:48:11.053Z,86.09
2022-09-20T14:50:44.958Z,86.67
2022-09-20T14:53:26.749Z,89.22
2022-09-20T14:56:06.335Z,91.06
2022-09-20T14:59:19.486Z,92.21
2022-09-20T15:02:11.474Z,92.92
2022-09-20T15:04:40.581Z,92.87
2022-09-20T15:07:13.128Z,92.62
2022-09-20T15:09:40.725Z,92.16
2022-09-20T15:12:22.645Z,91.92
2022-09-20T15:14:50.153Z,91.84
2022-09-20T15:17:20.858Z,91.65
2022-09-20T15:19:51.854Z,91.82
2022-09-20T15:22:19.747Z,91.68
2022-09-20T15:24:47.696Z,91.92
2022-09-20T15:27:18.674Z,92.20
2022-09-20T15:29:59.776Z,92.14
2022-09-20T15:32:27.824Z,92.13
2022-09-20T15:34:56.061Z,92.18
2022-09-20T15:37:24.876Z,92.32
2022-09-20T15:39:53.724Z,92.23
2022-09-20T15:42:22.022Z,92.46
2022-09-20T15:44:52.022Z,92.41
2022-09-20T15:47:22.510Z,92.41
2022-09-20T15:49:53.138Z,92.53
2022-09-20T15:52:24.690Z,92.52
2022-09-20T15:55:00.250Z,92.72
2022-09-20T15:57:28.202Z,92.73
2022-09-20T15:59:55.700Z,92.95
2022-09-20T16:02:23.500Z,93.34
2022-09-20T16:04:55.658Z,93.29
2022-09-20T16:07:26.866Z,93.08
2022-09-20T16:09:56.127Z,93.15
2022-09-20T16:12:25.214Z,93.09
2022-09-20T16:14:52.644Z,94.05
2022-09-20T16:17:40.108Z,99.16
2022-09-20T16:20:08.093Z,99.63
2022-09-20T16:22:38.309Z,97.75
2022-09-20T16:25:06.410Z,95.63
2022-09-20T16:27:34.859Z,94.06
2022-09-20T16:30:03.154Z,92.11
2022-09-20T16:32:30.736Z,90.72
2022-09-20T16:35:01.121Z,89.81
2022-09-20T16:37:32.742Z,89.38
2022-09-20T16:40:00.531Z,87.80
2022-09-20T16:42:27.922Z,86.89
2022-09-20T16:44:57.203Z,86.00
2022-09-20T16:47:26.207Z,85.47
2022-09-20T16:49:54.359Z,85.13
2022-09-20T16:52:21.891Z,84.46
2022-09-20T16:54:49.861Z,84.05
2022-09-20T16:57:17.308Z,83.74
2022-09-20T16:59:46.633Z,83.52
2022-09-20T17:02:14.135Z,83.41
2022-09-20T17:04:43.861Z,83.22
2022-09-20T17:07:11.240Z,83.16
2022-09-20T17:09:39.926Z,83.04
2022-09-20T17:12:09.628Z,83.07
2022-09-20T17:14:37.300Z,83.13
2022-09-20T17:17:04.781Z,83.00
2022-09-20T17:19:34.382Z,83.10
2022-09-20T17:22:04.133Z,83.16
2022-09-20T17:24:34.319Z,83.07
2022-09-20T17:27:54.994Z,82.77
2022-09-20T17:30:23.485Z,82.89
2022-09-20T17:32:53.686Z,82.84
2022-09-20T17:35:23.376Z,82.66
2022-09-20T17:37:50.841Z,82.68
2022-09-20T17:40:18.431Z,83.17
2022-09-20T17:42:46.827Z,83.22
2022-09-20T17:45:14.409Z,83.43
2022-09-20T17:47:42.004Z,84.06
2022-09-20T17:50:14.687Z,84.06
2022-09-20T17:52:42.322Z,84.21
2022-09-20T17:55:13.843Z,84.47
2022-09-20T17:57:43.296Z,84.68
2022-09-20T18:00:11.388Z,84.93
2022-09-20T18:02:42.722Z,85.07
2022-09-20T18:05:10.255Z,85.15
2022-09-20T18:07:37.602Z,85.29
2022-09-20T18:10:11.051Z,85.40
2022-09-20T18:12:38.397Z,85.77
2022-09-20T18:15:08.985Z,85.82
2022-09-20T18:17:39.348Z,85.86
2022-09-20T18:20:07.392Z,85.88
2022-09-20T18:22:39.078Z,85.83
2022-09-20T18:25:07.349Z,87.06
2022-09-20T18:27:35.846Z,87.07
2022-09-20T18:30:04.792Z,87.44
2022-09-20T18:32:32.221Z,87.42
2022-09-20T18:34:59.640Z,87.49
2022-09-20T18:37:26.990Z,87.66
2022-09-20T18:39:54.724Z,87.45
2022-09-20T18:42:22.488Z,87.54
2022-09-20T18:44:50.514Z,87.69
2022-09-20T18:47:19.382Z,87.24
2022-09-20T18:49:46.826Z,87.63
2022-09-20T18:52:16.316Z,87.45
2022-09-20T18:54:43.915Z,87.44
2022-09-20T18:57:12.073Z,87.41
2022-09-20T18:59:40.595Z,87.41
2022-09-20T19:02:38.502Z,87.44
2022-09-20T19:05:21.337Z,87.58
2022-09-20T19:07:59.668Z,87.50
2022-09-20T19:10:41.221Z,87.55
2022-09-20T19:13:27.352Z,87.61
2022-09-20T19:15:54.721Z,87.55
2022-09-20T19:18:28.192Z,87.56
2022-09-20T19:21:16.529Z,87.37
2022-09-20T19:24:16.564Z,87.04
2022-09-20T19:26:49.392Z,87.29
2022-09-20T19:29:27.657Z,87.21
2022-09-20T19:31:57.811Z,87.21
2022-09-20T19:34:28.159Z,87.14
2022-09-20T19:37:24.708Z,87.03
2022-09-20T19:40:09.141Z,86.89
2022-09-20T19:42:42.508Z,86.81
2022-09-20T19:45:20.294Z,86.65
2022-09-20T19:48:09.561Z,86.65
2022-09-20T19:50:45.545Z,86.62
2022-09-20T19:53:18.040Z,86.59
2022-09-20T19:55:56.712Z,86.31
2022-09-20T19:58:26.931Z,86.38
2022-09-20T20:00:58.208Z,86.37
2022-09-20T20:03:27.523Z,86.11
2022-09-20T20:06:07.103Z,86.08
2022-09-20T20:08:51.184Z,86.07
2022-09-20T20:11:53.078Z,86.08
2022-09-20T20:14:29.427Z,85.92
2022-09-20T20:17:00.506Z,85.94
2022-09-20T20:19:52.998Z,85.84
2022-09-20T20:22:45.860Z,85.66
2022-09-20T20:26:00.207Z,85.49
2022-09-20T20:28:27.880Z,85.68
2022-09-20T20:31:00.826Z,85.65
2022-09-20T20:33:29.297Z,85.68
2022-09-20T20:36:02.122Z,85.52
2022-09-20T20:38:36.538Z,85.47
2022-09-20T20:41:05.845Z,85.23
2022-09-20T20:43:40.909Z,85.35
2022-09-20T20:46:10.749Z,85.29
2022-09-20T20:48:38.428Z,85.15
2022-09-20T20:51:14.434Z,85.16
2022-09-20T20:53:47.831Z,84.90
2022-09-20T20:56:27.577Z,84.83
2022-09-20T20:59:00.881Z,85.06
2022-09-20T21:01:37.077Z,84.88
2022-09-20T21:04:05.301Z,84.88
2022-09-20T21:06:38.682Z,84.79
2022-09-20T21:09:10.129Z,84.68
2022-09-20T21:11:43.701Z,84.61
2022-09-20T21:14:16.984Z,84.69
2022-09-20T21:16:45.526Z,84.63
2022-09-20T21:19:15.581Z,84.54
2022-09-20T21:21:45.270Z,84.58
2022-09-20T21:24:17.287Z,84.76
2022-09-20T21:26:46.575Z,84.65
2022-09-20T21:29:15.652Z,84.44
2022-09-20T21:31:45.710Z,84.53
2022-09-20T21:34:15.427Z,84.48
2022-09-20T21:36:44.777Z,84.36
2022-09-20T21:39:12.834Z,84.08
2022-09-20T21:41:40.550Z,84.06
2022-09-20T21:44:12.110Z,84.16
2022-09-20T21:46:41.544Z,83.98
2022-09-20T21:49:11.676Z,83.80
2022-09-20T21:51:42.201Z,83.70
2022-09-20T21:54:09.980Z,83.57
2022-09-20T21:56:40.389Z,83.41
2022-09-20T21:59:09.943Z,83.62
2022-09-20T22:01:41.120Z,83.56
2022-09-20T22:04:12.678Z,83.32
2022-09-20T22:06:43.983Z,83.27
2022-09-20T22:09:18.020Z,83.24
2022-09-20T22:11:48.906Z,82.92
2022-09-20T22:14:19.227Z,82.76
2022-09-20T22:16:51.383Z,82.65
2022-09-20T22:19:19.416Z,82.45
2022-09-20T22:21:48.765Z,82.34
2022-09-20T22:24:21.728Z,82.30
2022-09-20T22:26:50.923Z,82.23
2022-09-20T22:29:20.256Z,82.04
2022-09-20T22:31:49.723Z,82.13
2022-09-20T22:34:20.328Z,82.09
2022-09-20T22:36:52.656Z,81.95
2022-09-20T22:39:22.399Z,81.79
2022-09-20T22:41:51.105Z,81.73
2022-09-20T22:44:18.653Z,81.51
2022-09-20T22:46:48.704Z,81.50
2022-09-20T22:49:16.288Z,81.51
2022-09-20T22:51:43.700Z,81.36
2022-09-20T22:54:12.161Z,81.32
2022-09-20T22:56:41.449Z,80.93
2022-09-20T22:59:14.231Z,80.91
2022-09-20T23:01:46.397Z,80.91
2022-09-20T23:04:18.959Z,80.88
2022-09-20T23:06:58.283Z,80.67
2022-09-20T23:09:28.014Z,80.45
2022-09-20T23:11:55.686Z,80.31
2022-09-20T23:14:23.431Z,80.08
2022-09-20T23:16:50.936Z,80.17
2022-09-20T23:19:21.060Z,80.23
2022-09-20T23:21:48.591Z,80.10
2022-09-20T23:24:16.715Z,79.95
2022-09-20T23:26:44.743Z,79.84
2022-09-20T23:29:15.010Z,79.83
2022-09-20T23:31:47.139Z,79.74
2022-09-20T23:34:17.906Z,79.66
2022-09-20T23:36:46.046Z,79.47
2022-09-20T23:39:13.952Z,79.48
2022-09-20T23:41:44.857Z,79.30
2022-09-20T23:44:15.834Z,79.07
2022-09-20T23:46:43.311Z,78.96
2022-09-20T23:49:12.851Z,79.04
2022-09-20T23:51:40.298Z,78.98
2022-09-20T23:54:07.966Z,78.85
2022-09-20T23:56:36.505Z,78.83
2022-09-20T23:59:12.585Z,78.74
